M I D A S
Marine Information and Data Acquisition System
Tripno 497 of the Zeeleeuw from 2003-05-15 07:18:04 to 2003-05-15 09:40:24
Back to CruiseResearch ActivitiesStationsMapUnderway DataData graphs

EquipmentUnitsComment
TimeDGPSUTC
LatitudeDGPSDM.mWGS84
LongitudeDGPSDM.mWGS84
HeadingGyrodeg 
SOGDGPSknotsSpeed over ground
COGDGPSdegCourse over ground
DepthEcho soundermeters200 kHz
Missing or incorrect values are displayed as -999
Navigation data collected by the RV Zeeleeuw from 2003-05-15 07:18:04 to 2003-05-15 09:40:24
Time Latitude Longitude Heading SOG COG Depth
2003-05-15 07:19:08 51°13.61 2°56.06 112.6 3.7 292 -999
2003-05-15 07:20:10 51°13.64 2°55.94 116.1 4.8 293 -999
2003-05-15 07:21:10 51°13.67 2°55.82 113.2 4.2 292 -999
2003-05-15 07:22:06 51°13.68 2°55.76 92.9 1 285 10.1
2003-05-15 07:23:06 51°13.7 2°55.77 43.6 0.9 21 10.2
2003-05-15 07:24:08 51°13.68 2°55.75 20.1 0.6 217 -999
2003-05-15 07:25:10 51°13.7 2°55.74 335 2.4 328 -999
2003-05-15 07:26:06 51°13.75 2°55.69 335.6 5.3 331 9.1
2003-05-15 07:27:06 51°13.84 2°55.62 339 6.5 335 9.3
2003-05-15 07:28:06 51°13.95 2°55.54 342.3 8.1 338 10.1
2003-05-15 07:29:06 51°14.09 2°55.45 337.1 9.2 331 10.2
2003-05-15 07:30:06 51°14.21 2°55.31 326.6 9 322 10.3
2003-05-15 07:31:06 51°14.32 2°55.14 313.5 9.3 310 10.3
2003-05-15 07:32:06 51°14.41 2°54.92 302.5 10.7 296 9.8
2003-05-15 07:33:06 51°14.5 2°54.63 304.2 12.4 295 10
2003-05-15 07:34:04 51°14.6 2°54.35 310.9 12.4 302 10
2003-05-15 07:35:06 51°14.71 2°54.06 309.8 12.3 301 9.5
2003-05-15 07:36:06 51°14.82 2°53.78 310.6 12.3 301 8.9
2003-05-15 07:37:06 51°14.92 2°53.49 310.4 12.4 301 9.2
2003-05-15 07:38:06 51°15.02 2°53.19 304.5 12.8 294 9.3
2003-05-15 07:39:06 51°15.11 2°52.88 304.8 13 295 9.9
2003-05-15 07:40:06 51°15.2 2°52.57 305.5 13.3 295 10.4
2003-05-15 07:41:06 51°15.29 2°52.25 305.8 13.3 295 11
2003-05-15 07:42:06 51°15.34 2°51.92 279.5 13.3 270 11.6
2003-05-15 07:43:06 51°15.31 2°51.56 257.8 13.7 248 11.8
2003-05-15 07:44:06 51°15.2 2°51.25 237.3 13.6 236 11.8
2003-05-15 07:45:06 51°15.06 2°50.96 238.4 13.8 236 11.8
2003-05-15 07:46:06 51°14.92 2°50.67 232.8 14 230 11.5
2003-05-15 07:47:06 51°14.77 2°50.38 231.3 14 228 11.4
2003-05-15 07:48:06 51°14.63 2°50.1 232.4 13.8 229 11.3
2003-05-15 07:49:06 51°14.48 2°49.82 233.1 13.5 229 11.2
2003-05-15 07:50:06 51°14.37 2°49.6 235.8 8.4 236 11.2
2003-05-15 07:51:06 51°14.32 2°49.45 254.4 5.6 248 11.2
2003-05-15 07:52:06 51°14.29 2°49.34 280.3 2.6 256 11.2
2003-05-15 07:53:06 51°14.29 2°49.28 294.5 2.8 267 11.2
2003-05-15 07:54:06 51°14.3 2°49.21 339.6 2.7 306 11.3
2003-05-15 07:55:06 51°14.33 2°49.18 29 2 359 11.3
2003-05-15 07:56:06 51°14.36 2°49.21 51.7 2.8 40 11.4
2003-05-15 07:57:06 51°14.39 2°49.28 61.9 3.3 57 11.5
2003-05-15 07:58:06 51°14.42 2°49.35 65.1 3 65 11.5
2003-05-15 07:59:06 51°14.43 2°49.41 77.7 2.4 89 11.5
2003-05-15 08:00:06 51°14.44 2°49.46 62.1 1.5 52 11.5
2003-05-15 08:01:06 51°14.46 2°49.5 52.3 2.2 44 11.7
2003-05-15 08:02:06 51°14.48 2°49.55 61.2 2.5 57 11.8
2003-05-15 08:03:06 51°14.51 2°49.61 66.2 2.8 68 11.7
2003-05-15 08:04:06 51°14.52 2°49.68 67.8 2.5 64 11.7
2003-05-15 08:05:06 51°14.54 2°49.74 62.8 2.4 61 11.8
2003-05-15 08:06:06 51°14.56 2°49.8 66.2 2.5 68 11.7
2003-05-15 08:07:06 51°14.58 2°49.86 66.2 2.2 55 11.7
2003-05-15 08:08:06 51°14.6 2°49.91 64.5 2.5 63 11.8
2003-05-15 08:09:06 51°14.61 2°49.97 64.9 2.5 69 11.8
2003-05-15 08:10:06 51°14.63 2°50.03 65.5 2.5 62 11.8
2003-05-15 08:11:06 51°14.65 2°50.09 63.1 2.4 66 11.9
2003-05-15 08:12:06 51°14.67 2°50.14 59.8 2.3 50 11.9
2003-05-15 08:13:06 51°14.69 2°50.2 60.5 2.3 56 11.9
2003-05-15 08:14:06 51°14.71 2°50.25 57.8 2.4 51 11.9
2003-05-15 08:15:06 51°14.74 2°50.3 56.4 2.6 53 12
2003-05-15 08:16:06 51°14.76 2°50.35 56.7 2.5 53 12
2003-05-15 08:17:06 51°14.79 2°50.41 57.3 2.8 61 12.1
2003-05-15 08:18:06 51°14.81 2°50.47 58.3 2.6 57 12.1
2003-05-15 08:19:06 51°14.84 2°50.53 59.6 2.8 50 12.1
2003-05-15 08:20:06 51°14.86 2°50.59 55.3 2.6 48 12.1
2003-05-15 08:21:06 51°14.89 2°50.65 57.3 2.7 55 12.2
2003-05-15 08:22:06 51°14.91 2°50.71 56.4 2.7 55 12.2
2003-05-15 08:23:06 51°14.94 2°50.77 55.1 2.8 58 12.2
2003-05-15 08:24:06 51°14.97 2°50.83 60.2 2.7 61 12.2
2003-05-15 08:25:06 51°14.98 2°50.89 67 2.4 71 12.2
2003-05-15 08:26:06 51°14.99 2°50.95 75.4 2 82 12.3
2003-05-15 08:27:06 51°14.99 2°51 81.6 2.1 102 12.3
2003-05-15 08:28:06 51°14.99 2°51.05 80.3 1.8 100 12.1
2003-05-15 08:29:06 51°14.99 2°51.08 78.5 1.2 90 12.1
2003-05-15 08:30:06 51°14.98 2°51.11 84.6 1.1 117 12.1
2003-05-15 08:31:06 51°14.97 2°51.13 93.9 1.1 157 12
2003-05-15 08:32:06 51°14.95 2°51.14 107.1 1 151 11.9
2003-05-15 08:33:06 51°14.93 2°51.14 121.6 1 169 12
2003-05-15 08:34:06 51°14.91 2°51.14 134.4 1.4 185 11.9
2003-05-15 08:35:06 51°14.89 2°51.14 145.8 1.5 189 11.8
2003-05-15 08:36:06 51°14.84 2°51.17 125.6 4.8 133 11.6
2003-05-15 08:37:06 51°14.78 2°51.28 120.1 6.1 124 11.2
2003-05-15 08:38:06 51°14.73 2°51.43 107.3 6.1 112 10.9
2003-05-15 08:39:06 51°14.68 2°51.57 118.9 6.4 124 10.6
2003-05-15 08:40:06 51°14.61 2°51.71 119.7 6.4 126 10.2
2003-05-15 08:41:06 51°14.55 2°51.85 118 6.4 120 9.9
2003-05-15 08:42:06 51°14.51 2°51.98 84.3 3.8 94 9.7
2003-05-15 08:43:06 51°14.52 2°52.05 58 1.2 30 9.7
2003-05-15 08:44:06 51°14.52 2°52.06 42.5 0.5 42 9.8
2003-05-15 08:45:06 51°14.53 2°52.07 38.1 0.4 11 9.7
2003-05-15 08:46:06 51°14.53 2°52.07 37 0.3 325 9.8
2003-05-15 08:47:06 51°14.53 2°52.07 37.7 0.3 315 9.8
2003-05-15 08:48:06 51°14.53 2°52.06 37.7 0.3 123 9.8
2003-05-15 08:49:06 51°14.53 2°52.06 39.9 0.3 208 9.9
2003-05-15 08:50:06 51°14.53 2°52.06 41.4 0.2 59 9.9
2003-05-15 08:51:06 51°14.55 2°52.09 45.5 3.5 42 9.9
2003-05-15 08:52:06 51°14.59 2°52.24 86.2 8 86 9.8
2003-05-15 08:53:06 51°14.57 2°52.47 97.8 9.3 92 9.7
2003-05-15 08:54:06 51°14.54 2°52.72 107.1 9.5 109 9.7
2003-05-15 08:55:06 51°14.51 2°52.96 109 9.6 106 9.6
2003-05-15 08:56:06 51°14.46 2°53.2 111.3 8.8 115 8.8
2003-05-15 08:57:06 51°14.42 2°53.38 116.8 6.1 122 10.6
2003-05-15 08:58:06 51°14.35 2°53.49 140 5.4 143 10.5
2003-05-15 08:59:06 51°14.29 2°53.58 129.7 4.3 140 10.4
2003-05-15 09:00:06 51°14.26 2°53.63 117.9 0.3 189 10.2
2003-05-15 09:01:06 51°14.25 2°53.62 98.1 0.3 221 10.2
2003-05-15 09:02:06 51°14.25 2°53.62 88.6 0.7 197 9.9
2003-05-15 09:03:06 51°14.24 2°53.62 79.9 0.3 181 10.2
2003-05-15 09:04:06 51°14.23 2°53.62 71.5 0.3 148 10.3
2003-05-15 09:05:06 51°14.23 2°53.62 66.1 0.2 326 10.3
2003-05-15 09:06:06 51°14.23 2°53.62 60.9 0.1 258 10.4
2003-05-15 09:07:06 51°14.22 2°53.63 54.7 0.1 149 10.3
2003-05-15 09:08:06 51°14.22 2°53.63 50.8 0.4 113 10.3
2003-05-15 09:09:06 51°14.22 2°53.64 49 0.1 130 10.4
2003-05-15 09:10:06 51°14.22 2°53.64 50.3 0.9 120 10.4
2003-05-15 09:11:06 51°14.22 2°53.65 52.7 0.5 119 10.4
2003-05-15 09:12:06 51°14.22 2°53.66 52.6 0.4 75 10.2
2003-05-15 09:13:06 51°14.24 2°53.7 51.6 4.8 49 10.3
2003-05-15 09:14:06 51°14.28 2°53.78 57.3 3.4 60 10.3
2003-05-15 09:15:06 51°14.3 2°53.85 58.4 2.5 62 10.4
2003-05-15 09:16:06 51°14.32 2°53.9 56.9 1.8 56 10.5
2003-05-15 09:17:06 51°14.33 2°53.93 58 1.4 57 10.4
2003-05-15 09:18:06 51°14.34 2°53.97 58.9 1.4 80 10.4
2003-05-15 09:19:06 51°14.35 2°53.99 59.9 1.1 61 10.4
2003-05-15 09:20:06 51°14.35 2°54.02 61.6 0.9 88 10.6
2003-05-15 09:21:06 51°14.36 2°54.06 63.9 3.2 57 10.4
2003-05-15 09:22:06 51°14.4 2°54.24 75.9 9.7 77 10.4
2003-05-15 09:23:06 51°14.43 2°54.52 89.9 10.6 89 11.6
2003-05-15 09:24:06 51°14.42 2°54.79 101.8 10.4 98 11.5
2003-05-15 09:25:06 51°14.36 2°55.05 121.4 10 121 11.3
2003-05-15 09:26:06 51°14.27 2°55.25 136 8.4 133 12.1
2003-05-15 09:27:06 51°14.18 2°55.37 150 6.3 146 12.8
2003-05-15 09:28:06 51°14.1 2°55.44 157.1 5.5 155 12
2003-05-15 09:29:06 51°14.01 2°55.5 156.5 5.8 153 12
2003-05-15 09:30:06 51°13.93 2°55.57 160.7 5.7 156 12.3
2003-05-15 09:31:06 51°13.84 2°55.63 159.6 5.7 156 11.4
2003-05-15 09:32:06 51°13.76 2°55.7 149.4 4.9 146 11.2
2003-05-15 09:33:06 51°13.71 2°55.78 127.7 4.1 125 12.2
2003-05-15 09:34:06 51°13.68 2°55.87 128.1 3.8 124 11
2003-05-15 09:35:06 51°13.64 2°55.95 127.4 3.5 123 11
2003-05-15 09:36:08 51°13.61 2°56.02 114.3 2.9 109 -999
2003-05-15 09:37:08 51°13.6 2°56.08 103.9 1 95 9.9
2003-05-15 09:38:06 51°13.6 2°56.1 113 0.4 116 8.9
2003-05-15 09:39:06 51°13.6 2°56.1 123.1 0.1 18 8.8
2003-05-15 09:40:06 51°13.6 2°56.1 126.2   329 8.7